This is the latest recevied weather packets stored in our database for station/object TG5ALY-16. If no packets are shown the sender has not sent any weather packets the latest 10 day(s).
| Time | Temp. | Humidity | Pressure | Rain* | Wind** | Luminosity | Snow |
|---|---|---|---|---|---|---|---|
| 1777676709 | 19.44° C | 62% | 1012 hPa | 0 mm | - | - | - |
| 1777676108 | 19.44° C | 62% | 1012 hPa | 0 mm | - | - | - |
| 1777675507 | 19.44° C | 60% | 1012 hPa | 0 mm | - | - | - |
| 1777674907 | 21.11° C | 53% | 1012 hPa | 0 mm | - | - | - |
| 1777674307 | 21.11° C | 53% | 1012 hPa | 0 mm | - | - | - |
| 1777673705 | 21.11° C | 53% | 1012 hPa | 0 mm | - | - | - |
| 1777673105 | 23.33° C | 43% | 1012 hPa | 0 mm | - | - | - |
| 1777672504 | 23.33° C | 43% | 1012 hPa | 0 mm | - | - | - |
| 1777671904 | 23.33° C | 43% | 1012 hPa | 0 mm | - | - | - |
| 1777671303 | 23.33° C | 43% | 1012 hPa | 0 mm | - | - | - |
| 1777670702 | 23.33° C | 43% | 1012 hPa | 0 mm | - | - | - |
| 1777670101 | 23.33° C | 43% | 1012 hPa | 0 mm | - | - | - |
| 1777669501 | 23.33° C | 43% | 1012 hPa | 0 mm | - | - | - |
| 1777668901 | 22.22° C | 46% | 1012 hPa | 0 mm | - | - | - |
| 1777668300 | 22.22° C | 46% | 1012 hPa | 0 mm | - | - | - |
| 1777667699 | 22.22° C | 49% | 1012 hPa | 0 mm | - | - | - |
| 1777667099 | 22.22° C | 49% | 1013 hPa | 0 mm | - | - | - |
| 1777666498 | 22.22° C | 46% | 1013 hPa | 0 mm | - | - | - |
| 1777665897 | 22.22° C | 46% | 1013 hPa | 0 mm | - | - | - |
| 1777665296 | 22.78° C | 42% | 1012 hPa | 0 mm | - | - | - |
| 1777664696 | 22.78° C | 42% | 1012 hPa | 0 mm | - | - | - |
| 1777664095 | 22.78° C | 36% | 1012 hPa | 0 mm | - | - | - |
| 1777663494 | 22.78° C | 36% | 1013 hPa | 0 mm | - | - | - |
| 1777662894 | 23.33° C | 33% | 1013 hPa | 0 mm | - | - | - |
| 1777662293 | 23.33° C | 33% | 1013 hPa | 0 mm | - | - | - |
* Rain latest hour (hover to see other rain measurements)
** Current wind speed in m/s (hover to see current wind gust speed)